Time;durP1;ratioP1;P1;durP2;ratioP2;P2;SDS_P1;SDS_P2;PMS_P1;PMS_P2;Temp;Humidity;BMP_temperature;BMP_pressure;BME280_temperature;BME280_humidity;BME280_pressure;Samples;Min_cycle;Max_cycle;Signal;HPM_P1;HPM_P2
2023/05/25 00:00:32;;;;;;;19.37;8.60;;;;;;;;;;5014185;28;20419;-45
2023/05/25 00:02:59;;;;;;;17.80;9.40;;;;;;;;;;5014134;28;20430;-46
2023/05/25 00:05:26;;;;;;;15.03;7.17;;;;;;;;;;5013237;28;20515;-45
2023/05/25 00:07:53;;;;;;;25.13;9.03;;;;;;;;;;5013232;28;20423;-45
2023/05/25 00:10:19;;;;;;;20.87;7.83;;;;;;;;;;5014332;28;20463;-46
2023/05/25 00:12:45;;;;;;;12.67;8.37;;;;;;;;;;5014116;28;20518;-45
2023/05/25 00:15:11;;;;;;;10.63;6.73;;;;;;;;;;5013554;28;20502;-45
2023/05/25 00:17:37;;;;;;;10.77;7.50;;;;;;;;;;5013769;28;20408;-45
2023/05/25 00:20:06;;;;;;;18.07;7.77;;;;;;;;;;5014081;28;20445;-45
2023/05/25 00:22:33;;;;;;;11.30;7.30;;;;;;;;;;5013921;28;20442;-45
2023/05/25 00:24:59;;;;;;;11.93;6.80;;;;;;;;;;5013980;28;20407;-45
2023/05/25 00:27:25;;;;;;;14.80;8.20;;;;;;;;;;5013546;28;20411;-45
2023/05/25 00:29:51;;;;;;;13.33;7.60;;;;;;;;;;5013761;28;20889;-45
2023/05/25 00:32:17;;;;;;;14.30;7.83;;;;;;;;;;5013828;28;20782;-45
2023/05/25 00:34:43;;;;;;;13.73;7.67;;;;;;;;;;5017815;28;20420;-45
2023/05/25 00:37:09;;;;;;;12.50;7.50;;;;;;;;;;5011601;28;20431;-45
2023/05/25 00:39:35;;;;;;;12.57;7.90;;;;;;;;;;5013454;28;20411;-45
2023/05/25 00:42:02;;;;;;;14.90;7.90;;;;;;;;;;5012997;28;20408;-46
2023/05/25 00:44:28;;;;;;;11.30;7.50;;;;;;;;;;5013583;28;20435;-45
2023/05/25 00:46:54;;;;;;;13.00;7.33;;;;;;;;;;5012960;28;20822;-45
2023/05/25 00:49:21;;;;;;;17.10;8.57;;;;;;;;;;5013577;28;20489;-45
2023/05/25 00:51:48;;;;;;;13.33;8.03;;;;;;;;;;5013391;28;20489;-45
2023/05/25 00:54:15;;;;;;;14.37;8.40;;;;;;;;;;5013245;28;20434;-45
2023/05/25 00:56:44;;;;;;;14.30;7.70;;;;;;;;;;5012923;28;20411;-46
2023/05/25 00:59:11;;;;;;;15.50;7.80;;;;;;;;;;5011911;28;20417;-46
2023/05/25 01:01:40;;;;;;;17.80;8.90;;;;;;;;;;5012692;28;20462;-45
2023/05/25 01:04:08;;;;;;;12.63;8.63;;;;;;;;;;5012689;28;20427;-45
2023/05/25 01:06:35;;;;;;;15.50;8.67;;;;;;;;;;5010523;28;20780;-46
2023/05/25 01:09:03;;;;;;;15.00;7.63;;;;;;;;;;5012111;28;20461;-46
2023/05/25 01:11:33;;;;;;;20.63;9.23;;;;;;;;;;5013544;28;20411;-46
2023/05/25 01:13:59;;;;;;;13.17;8.57;;;;;;;;;;5005018;28;20489;-45
2023/05/25 01:16:25;;;;;;;16.13;8.30;;;;;;;;;;5012187;28;20893;-44
2023/05/25 01:18:52;;;;;;;21.73;10.40;;;;;;;;;;5012406;28;20425;-45
2023/05/25 01:21:22;;;;;;;16.53;8.00;;;;;;;;;;5012827;28;20438;-44
2023/05/25 01:24:07;;;;;;;17.80;7.83;;;;;;;;;;5012052;28;20438;-45
2023/05/25 01:26:37;;;;;;;19.73;9.00;;;;;;;;;;5011943;28;20487;-44
2023/05/25 01:29:04;;;;;;;13.63;8.33;;;;;;;;;;5005098;28;20459;-44
2023/05/25 01:31:30;;;;;;;13.27;8.20;;;;;;;;;;5012209;28;20487;-46
2023/05/25 01:33:57;;;;;;;12.93;7.77;;;;;;;;;;5017780;28;20470;-46
2023/05/25 01:36:23;;;;;;;18.50;9.00;;;;;;;;;;5011777;28;21000;-45
2023/05/25 01:38:49;;;;;;;12.73;8.30;;;;;;;;;;5009782;28;20426;-45
2023/05/25 01:41:15;;;;;;;15.73;8.20;;;;;;;;;;5012016;28;20413;-47
2023/05/25 01:43:41;;;;;;;13.43;8.00;;;;;;;;;;5011697;28;20815;-45
2023/05/25 01:46:10;;;;;;;14.47;7.70;;;;;;;;;;5011755;28;20411;-44
2023/05/25 01:48:45;;;;;;;15.90;8.67;;;;;;;;;;5009543;28;20449;-45
2023/05/25 01:51:16;;;;;;;15.83;8.77;;;;;;;;;;5012043;28;20910;-45
2023/05/25 01:53:45;;;;;;;13.07;9.20;;;;;;;;;;5010987;28;20430;-45
2023/05/25 01:56:13;;;;;;;13.37;8.80;;;;;;;;;;5011925;28;20779;-44
2023/05/25 01:58:41;;;;;;;16.43;8.83;;;;;;;;;;5011854;28;20395;-44
2023/05/25 02:01:08;;;;;;;13.27;7.73;;;;;;;;;;5011808;28;20403;-44
2023/05/25 02:03:34;;;;;;;13.80;8.00;;;;;;;;;;5011668;28;20423;-44
2023/05/25 02:06:00;;;;;;;11.87;9.10;;;;;;;;;;5010682;28;20418;-44
2023/05/25 02:08:26;;;;;;;14.60;8.20;;;;;;;;;;5011889;28;20403;-44
2023/05/25 02:10:52;;;;;;;11.60;7.63;;;;;;;;;;5010894;28;20458;-45
2023/05/25 02:13:18;;;;;;;15.30;9.27;;;;;;;;;;5011853;28;20430;-44
2023/05/25 02:15:44;;;;;;;13.13;8.30;;;;;;;;;;5011554;28;20837;-44
2023/05/25 02:18:12;;;;;;;19.30;9.00;;;;;;;;;;5011507;28;20904;-45
2023/05/25 02:20:38;;;;;;;13.13;9.20;;;;;;;;;;5011880;28;20961;-45
2023/05/25 02:23:04;;;;;;;19.50;8.60;;;;;;;;;;5011592;28;20518;-45
2023/05/25 02:25:30;;;;;;;21.00;9.90;;;;;;;;;;5011555;28;20453;-45
2023/05/25 02:27:56;;;;;;;21.20;9.80;;;;;;;;;;5011341;28;20412;-45
2023/05/25 02:30:22;;;;;;;11.03;8.13;;;;;;;;;;5011351;28;20464;-45
2023/05/25 02:32:49;;;;;;;16.70;9.50;;;;;;;;;;5011629;28;20466;-44
2023/05/25 02:35:15;;;;;;;22.67;8.87;;;;;;;;;;5011574;28;20403;-45
2023/05/25 02:37:41;;;;;;;20.60;9.33;;;;;;;;;;5010065;28;20472;-46
2023/05/25 02:40:08;;;;;;;22.03;8.80;;;;;;;;;;5010661;28;20429;-46
2023/05/25 02:42:34;;;;;;;17.63;9.60;;;;;;;;;;5011242;28;20449;-45
2023/05/25 02:45:00;;;;;;;12.10;9.00;;;;;;;;;;5011512;28;20430;-44
2023/05/25 02:47:26;;;;;;;13.03;10.20;;;;;;;;;;5007189;28;20403;-44
2023/05/25 02:49:52;;;;;;;17.40;9.93;;;;;;;;;;5016656;28;20502;-46
2023/05/25 02:52:17;;;;;;;15.37;9.00;;;;;;;;;;5011301;28;20897;-46
2023/05/25 02:54:43;;;;;;;13.00;9.07;;;;;;;;;;5011268;28;20419;-44
2023/05/25 02:57:09;;;;;;;12.83;8.67;;;;;;;;;;5011113;28;20453;-44
2023/05/25 02:59:35;;;;;;;14.93;9.37;;;;;;;;;;5011142;28;20928;-44
2023/05/25 03:02:01;;;;;;;14.47;9.27;;;;;;;;;;5011353;28;20927;-44
2023/05/25 03:04:29;;;;;;;14.47;9.57;;;;;;;;;;5012835;28;20427;-44
2023/05/25 03:06:55;;;;;;;20.27;9.20;;;;;;;;;;5013527;28;20480;-45
2023/05/25 03:09:21;;;;;;;19.00;9.40;;;;;;;;;;5014765;28;20592;-44
2023/05/25 03:11:47;;;;;;;12.97;9.27;;;;;;;;;;5015108;28;20837;-44
2023/05/25 03:14:13;;;;;;;18.53;8.90;;;;;;;;;;5012731;28;20530;-45
2023/05/25 03:16:39;;;;;;;18.20;9.20;;;;;;;;;;5014377;28;20442;-44
2023/05/25 03:19:06;;;;;;;16.67;9.60;;;;;;;;;;5014636;28;20422;-44
2023/05/25 03:21:32;;;;;;;12.47;8.50;;;;;;;;;;5014467;28;20779;-45
2023/05/25 03:23:58;;;;;;;18.73;9.00;;;;;;;;;;5014546;28;20461;-44
2023/05/25 03:26:24;;;;;;;9.13;7.83;;;;;;;;;;5013106;28;20448;-45
2023/05/25 03:28:50;;;;;;;13.83;8.47;;;;;;;;;;5014717;28;20780;-45
2023/05/25 03:31:16;;;;;;;12.60;8.67;;;;;;;;;;5014774;28;20804;-46
2023/05/25 03:33:42;;;;;;;16.30;9.50;;;;;;;;;;5014283;28;20945;-45
2023/05/25 03:36:11;;;;;;;13.40;8.97;;;;;;;;;;5014106;28;20429;-44
2023/05/25 03:38:37;;;;;;;15.23;9.10;;;;;;;;;;5014096;28;20480;-44
2023/05/25 03:41:03;;;;;;;15.10;8.90;;;;;;;;;;5014239;28;20469;-44
2023/05/25 03:43:29;;;;;;;16.60;9.53;;;;;;;;;;5014066;28;20498;-44
2023/05/25 03:45:55;;;;;;;15.80;9.93;;;;;;;;;;5013862;28;20460;-49
2023/05/25 03:48:21;;;;;;;13.03;9.40;;;;;;;;;;5018072;28;20405;-44
2023/05/25 03:50:47;;;;;;;12.53;9.10;;;;;;;;;;5015166;28;20461;-44
2023/05/25 03:53:13;;;;;;;12.67;8.73;;;;;;;;;;5013906;28;20431;-44
2023/05/25 03:55:39;;;;;;;12.33;8.53;;;;;;;;;;5013771;28;20452;-44
2023/05/25 03:58:05;;;;;;;14.50;9.37;;;;;;;;;;5011976;28;20457;-45
2023/05/25 04:00:31;;;;;;;18.33;9.30;;;;;;;;;;5013347;28;20468;-47
2023/05/25 04:02:57;;;;;;;22.73;8.70;;;;;;;;;;5013764;28;20431;-44
2023/05/25 04:05:23;;;;;;;14.43;9.63;;;;;;;;;;5013799;28;20469;-46
2023/05/25 04:07:50;;;;;;;14.77;10.33;;;;;;;;;;5013705;28;20498;-46
2023/05/25 04:10:16;;;;;;;12.30;8.57;;;;;;;;;;5013506;28;20516;-45
2023/05/25 04:12:42;;;;;;;11.30;7.73;;;;;;;;;;5013742;28;20434;-44
2023/05/25 04:15:08;;;;;;;11.00;9.33;;;;;;;;;;5012985;28;20930;-45
2023/05/25 04:17:37;;;;;;;15.23;8.60;;;;;;;;;;5013021;28;20921;-44
2023/05/25 04:20:04;;;;;;;13.80;9.10;;;;;;;;;;5013588;28;20414;-44
2023/05/25 04:22:29;;;;;;;21.43;9.87;;;;;;;;;;5013377;28;20435;-44
2023/05/25 04:24:55;;;;;;;14.20;9.27;;;;;;;;;;5013223;28;20839;-44
2023/05/25 04:27:21;;;;;;;13.00;10.27;;;;;;;;;;5011395;28;20436;-44
2023/05/25 04:29:49;;;;;;;13.50;9.03;;;;;;;;;;5012422;28;20520;-44
2023/05/25 04:32:16;;;;;;;9.27;8.20;;;;;;;;;;5013186;28;20441;-44
2023/05/25 04:34:43;;;;;;;14.43;9.47;;;;;;;;;;5013183;28;20470;-44
2023/05/25 04:37:09;;;;;;;22.67;9.90;;;;;;;;;;5012855;28;20429;-46
2023/05/25 04:39:35;;;;;;;13.90;8.60;;;;;;;;;;5012999;28;20435;-46
2023/05/25 04:42:03;;;;;;;17.30;9.00;;;;;;;;;;5013194;28;20451;-44
2023/05/25 04:44:29;;;;;;;11.60;8.67;;;;;;;;;;5012953;28;20446;-45
2023/05/25 04:46:55;;;;;;;16.50;8.90;;;;;;;;;;5012640;28;20411;-44
2023/05/25 04:49:21;;;;;;;15.27;8.70;;;;;;;;;;5016161;28;20462;-44
2023/05/25 04:51:47;;;;;;;10.93;8.23;;;;;;;;;;5012875;28;20509;-44
2023/05/25 04:54:13;;;;;;;12.73;9.90;;;;;;;;;;5012709;28;20773;-46
2023/05/25 04:56:39;;;;;;;16.17;9.97;;;;;;;;;;5011773;28;20434;-46
2023/05/25 04:59:05;;;;;;;22.53;10.10;;;;;;;;;;5005986;28;20407;-45
2023/05/25 05:01:33;;;;;;;15.90;9.70;;;;;;;;;;5012196;28;20423;-45
2023/05/25 05:03:59;;;;;;;17.47;10.60;;;;;;;;;;5012709;28;20442;-45
2023/05/25 05:06:25;;;;;;;14.33;11.57;;;;;;;;;;5012378;28;20469;-44
2023/05/25 05:08:51;;;;;;;14.57;10.97;;;;;;;;;;5012388;28;20438;-44
2023/05/25 05:11:17;;;;;;;23.87;11.30;;;;;;;;;;5012532;28;20416;-44
2023/05/25 05:13:43;;;;;;;24.20;11.27;;;;;;;;;;5012388;28;20435;-45
2023/05/25 05:16:09;;;;;;;20.97;9.63;;;;;;;;;;5012299;28;20407;-44
2023/05/25 05:18:35;;;;;;;16.00;10.00;;;;;;;;;;5012407;28;20900;-45
2023/05/25 05:21:01;;;;;;;23.73;15.80;;;;;;;;;;5012321;28;20411;-46
2023/05/25 05:23:27;;;;;;;13.13;9.93;;;;;;;;;;5012231;28;20439;-45
2023/05/25 05:25:53;;;;;;;15.00;8.93;;;;;;;;;;5012170;28;20407;-45
2023/05/25 05:28:19;;;;;;;12.13;9.10;;;;;;;;;;5011207;28;20958;-48
2023/05/25 05:30:46;;;;;;;12.37;8.13;;;;;;;;;;5012109;28;21021;-44
2023/05/25 05:33:12;;;;;;;15.83;9.70;;;;;;;;;;5012179;28;20836;-45
2023/05/25 05:35:38;;;;;;;15.10;9.30;;;;;;;;;;5012999;28;20403;-46
2023/05/25 05:38:04;;;;;;;11.47;9.90;;;;;;;;;;5012498;28;20403;-45
2023/05/25 05:40:30;;;;;;;12.67;8.70;;;;;;;;;;5013270;28;20419;-46
2023/05/25 05:42:56;;;;;;;11.50;7.90;;;;;;;;;;5012109;28;20458;-45
2023/05/25 05:45:22;;;;;;;10.93;9.33;;;;;;;;;;5013836;28;20426;-47
2023/05/25 05:47:48;;;;;;;12.07;9.37;;;;;;;;;;5013804;28;20513;-46
2023/05/25 05:50:14;;;;;;;15.13;9.30;;;;;;;;;;5016427;28;20459;-45
2023/05/25 05:52:40;;;;;;;16.07;10.07;;;;;;;;;;5013408;28;20423;-46
2023/05/25 05:55:06;;;;;;;11.93;9.17;;;;;;;;;;5012568;28;20418;-46
2023/05/25 05:57:32;;;;;;;15.63;10.50;;;;;;;;;;5011696;28;20461;-45
2023/05/25 05:59:58;;;;;;;18.90;10.50;;;;;;;;;;5012274;28;20466;-45
2023/05/25 06:02:24;;;;;;;27.23;12.50;;;;;;;;;;5015089;28;20456;-46
2023/05/25 06:04:50;;;;;;;15.10;11.37;;;;;;;;;;5012768;28;20464;-45
2023/05/25 06:07:16;;;;;;;20.17;10.97;;;;;;;;;;5012644;28;20421;-46
2023/05/25 06:09:42;;;;;;;14.33;9.53;;;;;;;;;;5012880;28;20494;-46
2023/05/25 06:12:08;;;;;;;22.90;10.33;;;;;;;;;;5012783;28;20423;-47
2023/05/25 06:14:34;;;;;;;14.30;11.00;;;;;;;;;;5012891;28;20408;-45
2023/05/25 06:17:00;;;;;;;17.97;10.70;;;;;;;;;;5012342;28;20403;-45
2023/05/25 06:19:26;;;;;;;24.23;10.70;;;;;;;;;;5012888;28;20407;-45
2023/05/25 06:21:52;;;;;;;17.80;11.87;;;;;;;;;;5012734;28;20405;-45
2023/05/25 06:24:18;;;;;;;19.27;11.63;;;;;;;;;;5012885;28;20469;-45
2023/05/25 06:26:45;;;;;;;20.40;12.10;;;;;;;;;;5012218;28;20447;-46
2023/05/25 06:29:11;;;;;;;28.57;13.80;;;;;;;;;;5011162;28;20515;-47
2023/05/25 06:31:37;;;;;;;27.97;15.83;;;;;;;;;;5011813;28;20432;-47
2023/05/25 06:34:03;;;;;;;24.03;15.20;;;;;;;;;;5012454;28;20432;-46
2023/05/25 06:36:29;;;;;;;27.60;16.97;;;;;;;;;;5012499;28;20443;-45
2023/05/25 06:38:55;;;;;;;28.60;17.13;;;;;;;;;;5019748;28;20901;-46
2023/05/25 06:41:21;;;;;;;29.13;15.90;;;;;;;;;;5016603;28;20465;-45
2023/05/25 06:43:47;;;;;;;31.03;18.70;;;;;;;;;;5016508;28;20479;-45
2023/05/25 06:46:16;;;;;;;25.53;17.00;;;;;;;;;;5016205;28;20420;-46
2023/05/25 06:48:43;;;;;;;34.63;20.13;;;;;;;;;;5016468;28;20693;-46
2023/05/25 06:51:09;;;;;;;23.43;17.60;;;;;;;;;;5016331;28;20475;-46
2023/05/25 06:53:35;;;;;;;28.07;18.47;;;;;;;;;;5016137;28;20424;-46
2023/05/25 06:56:01;;;;;;;30.43;15.43;;;;;;;;;;5016121;28;20428;-46
2023/05/25 06:58:27;;;;;;;24.03;17.77;;;;;;;;;;5014664;28;20429;-46
2023/05/25 07:00:53;;;;;;;26.83;16.50;;;;;;;;;;5016049;28;20417;-46
2023/05/25 07:03:19;;;;;;;26.50;17.30;;;;;;;;;;5015822;28;20430;-45
2023/05/25 07:05:45;;;;;;;28.30;17.43;;;;;;;;;;5015922;28;20417;-46
2023/05/25 07:08:11;;;;;;;27.63;17.50;;;;;;;;;;5015719;28;20501;-45
2023/05/25 07:10:37;;;;;;;28.40;16.43;;;;;;;;;;5015876;28;20549;-45
2023/05/25 07:13:03;;;;;;;26.10;15.43;;;;;;;;;;5013197;28;20437;-46
2023/05/25 07:15:29;;;;;;;22.70;15.70;;;;;;;;;;5013062;28;20467;-46
2023/05/25 07:17:56;;;;;;;20.30;15.10;;;;;;;;;;5015216;28;20414;-45
2023/05/25 07:20:22;;;;;;;21.20;14.60;;;;;;;;;;5015927;28;20469;-46
2023/05/25 07:22:48;;;;;;;20.63;13.27;;;;;;;;;;5015641;28;20446;-45
2023/05/25 07:25:14;;;;;;;24.97;15.67;;;;;;;;;;5014905;28;20421;-45
2023/05/25 07:27:41;;;;;;;27.57;13.87;;;;;;;;;;5012944;28;20542;-46
2023/05/25 07:30:07;;;;;;;19.80;11.40;;;;;;;;;;5015409;28;20457;-46
2023/05/25 07:32:33;;;;;;;17.70;11.57;;;;;;;;;;5013369;28;20553;-47
2023/05/25 07:35:00;;;;;;;17.17;11.20;;;;;;;;;;5015431;28;20399;-45
2023/05/25 07:37:26;;;;;;;18.97;11.33;;;;;;;;;;5014538;28;20870;-46
2023/05/25 07:39:52;;;;;;;22.90;10.27;;;;;;;;;;5016835;28;20447;-46
2023/05/25 07:42:20;;;;;;;25.83;10.40;;;;;;;;;;5015274;28;20418;-45
2023/05/25 07:44:47;;;;;;;19.33;12.03;;;;;;;;;;5014799;28;20408;-46
2023/05/25 07:47:13;;;;;;;15.90;11.50;;;;;;;;;;5014549;28;20466;-46
2023/05/25 07:49:39;;;;;;;24.57;18.10;;;;;;;;;;5014411;28;20494;-46
2023/05/25 07:52:05;;;;;;;20.10;14.30;;;;;;;;;;5013809;28;20415;-46
2023/05/25 07:54:31;;;;;;;19.77;14.00;;;;;;;;;;5014735;28;20430;-46
2023/05/25 07:56:57;;;;;;;32.03;18.23;;;;;;;;;;5013412;28;20477;-46
2023/05/25 07:59:23;;;;;;;26.00;17.10;;;;;;;;;;5014566;28;20419;-47
2023/05/25 08:01:49;;;;;;;31.10;16.60;;;;;;;;;;5014393;28;20922;-47
2023/05/25 08:04:15;;;;;;;18.10;15.67;;;;;;;;;;5014386;28;20963;-45
2023/05/25 08:06:41;;;;;;;21.67;14.60;;;;;;;;;;5009540;28;20427;-46
2023/05/25 08:09:07;;;;;;;19.23;14.10;;;;;;;;;;5021643;28;20379;-45
2023/05/25 08:11:33;;;;;;;16.07;12.30;;;;;;;;;;5014693;28;20888;-46
2023/05/25 08:13:59;;;;;;;22.57;16.53;;;;;;;;;;5034097;28;20397;-45
2023/05/25 08:16:25;;;;;;;19.20;15.67;;;;;;;;;;5013822;28;21051;-45
2023/05/25 08:18:51;;;;;;;16.47;14.60;;;;;;;;;;5014402;28;20848;-46
2023/05/25 08:21:17;;;;;;;14.60;11.53;;;;;;;;;;5014434;28;20412;-46
2023/05/25 08:23:43;;;;;;;20.50;13.07;;;;;;;;;;5014094;28;20409;-47
2023/05/25 08:26:10;;;;;;;16.67;12.53;;;;;;;;;;5018491;28;20748;-47
2023/05/25 08:28:36;;;;;;;18.50;13.90;;;;;;;;;;5013057;28;20432;-46
2023/05/25 08:31:03;;;;;;;14.77;12.77;;;;;;;;;;5009422;28;20818;-47
2023/05/25 08:33:29;;;;;;;19.70;13.10;;;;;;;;;;5014027;28;20403;-46
2023/05/25 08:35:55;;;;;;;17.93;12.17;;;;;;;;;;5012668;28;20670;-47
2023/05/25 08:38:24;;;;;;;17.97;14.70;;;;;;;;;;5013183;28;20957;-47
2023/05/25 08:40:57;;;;;;;17.87;13.83;;;;;;;;;;5013114;28;20428;-47
2023/05/25 08:43:23;;;;;;;16.43;14.63;;;;;;;;;;5013067;28;20984;-47
2023/05/25 08:45:50;;;;;;;16.90;12.83;;;;;;;;;;5012980;28;20394;-46
2023/05/25 08:48:19;;;;;;;16.00;14.30;;;;;;;;;;5013068;28;20405;-47
2023/05/25 08:50:45;;;;;;;25.07;14.13;;;;;;;;;;5012855;28;20455;-47
2023/05/25 08:53:12;;;;;;;23.90;14.57;;;;;;;;;;5012679;28;20888;-47
2023/05/25 08:55:38;;;;;;;13.83;11.30;;;;;;;;;;5010072;28;20937;-46
2023/05/25 08:58:19;;;;;;;13.63;10.30;;;;;;;;;;5010415;28;20426;-47
2023/05/25 09:00:54;;;;;;;17.60;9.97;;;;;;;;;;5012284;28;20439;-48
2023/05/25 09:03:22;;;;;;;13.77;10.77;;;;;;;;;;5011808;28;20429;-46
2023/05/25 09:05:49;;;;;;;12.07;8.50;;;;;;;;;;5012751;28;20382;-48
2023/05/25 09:08:15;;;;;;;13.10;8.47;;;;;;;;;;5012276;28;20385;-46
2023/05/25 09:10:41;;;;;;;15.27;10.33;;;;;;;;;;5012591;28;20433;-46
2023/05/25 09:13:07;;;;;;;20.30;11.57;;;;;;;;;;5012628;28;20403;-47
2023/05/25 09:15:34;;;;;;;16.17;10.40;;;;;;;;;;5012533;28;20872;-46
2023/05/25 09:18:00;;;;;;;18.60;11.07;;;;;;;;;;5012391;28;20402;-46
2023/05/25 09:20:30;;;;;;;15.00;9.80;;;;;;;;;;5012703;28;20469;-48
2023/05/25 09:22:57;;;;;;;17.30;8.50;;;;;;;;;;5004292;28;20446;-47
2023/05/25 09:25:25;;;;;;;12.97;8.27;;;;;;;;;;5012560;28;20506;-47
2023/05/25 09:27:51;;;;;;;12.57;6.50;;;;;;;;;;5011890;28;20785;-47
2023/05/25 09:30:17;;;;;;;9.87;6.77;;;;;;;;;;5011749;28;20876;-47
2023/05/25 09:32:43;;;;;;;9.30;6.60;;;;;;;;;;5012385;28;20436;-47
2023/05/25 09:35:10;;;;;;;10.73;6.17;;;;;;;;;;5012299;28;20411;-45
2023/05/25 09:37:36;;;;;;;9.83;6.47;;;;;;;;;;5012150;28;20405;-48
2023/05/25 09:40:04;;;;;;;17.70;6.77;;;;;;;;;;5012345;28;20423;-48
2023/05/25 09:42:30;;;;;;;6.90;6.23;;;;;;;;;;5012009;28;20932;-46
2023/05/25 09:44:58;;;;;;;15.20;6.27;;;;;;;;;;5012216;28;20419;-47
2023/05/25 09:47:24;;;;;;;11.20;6.80;;;;;;;;;;5011890;28;20902;-46
2023/05/25 09:49:50;;;;;;;11.30;6.23;;;;;;;;;;5012138;28;20464;-45
2023/05/25 09:52:16;;;;;;;11.17;6.53;;;;;;;;;;5011931;28;20461;-47
2023/05/25 09:54:45;;;;;;;8.47;5.53;;;;;;;;;;5011915;28;20394;-47
2023/05/25 09:57:11;;;;;;;8.40;5.77;;;;;;;;;;5011412;28;20449;-46
2023/05/25 09:59:37;;;;;;;15.80;5.60;;;;;;;;;;5011951;28;20503;-46
2023/05/25 10:02:03;;;;;;;11.40;5.97;;;;;;;;;;5011913;28;20431;-47
2023/05/25 10:04:29;;;;;;;9.97;5.97;;;;;;;;;;5011906;28;20818;-47
2023/05/25 10:06:56;;;;;;;10.70;6.50;;;;;;;;;;5011652;28;20497;-47
2023/05/25 10:09:24;;;;;;;17.80;5.90;;;;;;;;;;5011942;28;20526;-47
2023/05/25 10:11:51;;;;;;;9.90;5.20;;;;;;;;;;5010896;28;20398;-46
2023/05/25 10:14:19;;;;;;;7.23;6.50;;;;;;;;;;5013396;28;20402;-47
2023/05/25 10:16:49;;;;;;;8.67;6.23;;;;;;;;;;5015768;28;20412;-47
2023/05/25 10:19:41;;;;;;;13.43;7.10;;;;;;;;;;5015926;28;20384;-47
2023/05/25 10:22:13;;;;;;;15.10;7.70;;;;;;;;;;5008011;28;20419;-46
2023/05/25 10:24:49;;;;;;;9.83;7.33;;;;;;;;;;5015866;28;20416;-47
2023/05/25 10:27:18;;;;;;;11.80;7.10;;;;;;;;;;5015102;28;20492;-46
2023/05/25 10:29:44;;;;;;;10.90;6.93;;;;;;;;;;5015607;28;20462;-47
2023/05/25 10:32:10;;;;;;;10.43;9.33;;;;;;;;;;5015609;28;20418;-47
2023/05/25 10:34:36;;;;;;;13.07;8.00;;;;;;;;;;5015682;28;20384;-47
2023/05/25 10:37:03;;;;;;;10.10;8.70;;;;;;;;;;5015442;28;20448;-47
2023/05/25 10:39:29;;;;;;;11.87;8.13;;;;;;;;;;5015629;28;20444;-48
2023/05/25 10:41:55;;;;;;;9.13;7.80;;;;;;;;;;5015521;28;20442;-48
2023/05/25 10:44:21;;;;;;;9.60;7.73;;;;;;;;;;5015247;28;20432;-47
2023/05/25 10:46:47;;;;;;;13.53;8.40;;;;;;;;;;5015179;28;20415;-48
2023/05/25 10:49:13;;;;;;;12.90;6.60;;;;;;;;;;5015523;28;20409;-46
2023/05/25 10:51:40;;;;;;;15.13;8.30;;;;;;;;;;5015305;28;20865;-47
2023/05/25 10:54:06;;;;;;;13.67;8.80;;;;;;;;;;5015321;28;20454;-47
2023/05/25 10:56:32;;;;;;;15.17;6.50;;;;;;;;;;5013642;28;20393;-46
2023/05/25 10:58:59;;;;;;;10.93;6.70;;;;;;;;;;5014888;28;20397;-47
2023/05/25 11:01:25;;;;;;;10.00;7.50;;;;;;;;;;5015236;28;20392;-47
2023/05/25 11:03:56;;;;;;;11.17;7.60;;;;;;;;;;5015128;28;20465;-45
2023/05/25 11:06:43;;;;;;;16.73;7.80;;;;;;;;;;5014966;28;20377;-47
2023/05/25 11:09:27;;;;;;;17.20;8.63;;;;;;;;;;5007784;28;20419;-48
2023/05/25 11:11:57;;;;;;;8.23;7.00;;;;;;;;;;5015027;28;20465;-46
2023/05/25 11:14:26;;;;;;;13.63;6.87;;;;;;;;;;4995347;28;20445;-46
2023/05/25 11:17:10;;;;;;;12.60;7.73;;;;;;;;;;5012338;28;20403;-46
2023/05/25 11:19:38;;;;;;;12.53;7.97;;;;;;;;;;5014678;28;20412;-47
2023/05/25 11:22:20;;;;;;;14.77;9.47;;;;;;;;;;5014703;28;20382;-46
2023/05/25 11:24:56;;;;;;;17.20;9.50;;;;;;;;;;5014300;28;20457;-47
2023/05/25 11:27:23;;;;;;;11.47;6.90;;;;;;;;;;5012894;28;20803;-46
2023/05/25 11:29:52;;;;;;;11.80;7.47;;;;;;;;;;5014347;28;20435;-47
2023/05/25 11:32:18;;;;;;;12.47;6.50;;;;;;;;;;5014496;28;20421;-47
2023/05/25 11:34:46;;;;;;;10.03;7.47;;;;;;;;;;5014607;28;20411;-46
2023/05/25 11:37:15;;;;;;;10.20;7.03;;;;;;;;;;5015227;28;20460;-47
2023/05/25 11:39:42;;;;;;;9.93;7.73;;;;;;;;;;5014534;28;20432;-47
2023/05/25 11:42:10;;;;;;;8.63;6.93;;;;;;;;;;5014375;28;20847;-46
2023/05/25 11:44:37;;;;;;;8.13;6.97;;;;;;;;;;5014795;28;20410;-46
2023/05/25 11:47:07;;;;;;;14.43;7.43;;;;;;;;;;5014387;28;20489;-48
2023/05/25 11:49:33;;;;;;;8.67;7.57;;;;;;;;;;5018273;28;20505;-46
2023/05/25 11:52:03;;;;;;;11.43;7.90;;;;;;;;;;5014439;28;20425;-46
2023/05/25 11:54:30;;;;;;;10.50;7.33;;;;;;;;;;5014294;28;20431;-47
2023/05/25 11:56:58;;;;;;;11.60;7.70;;;;;;;;;;5004192;28;20425;-47
2023/05/25 11:59:28;;;;;;;10.80;7.07;;;;;;;;;;5013298;28;20812;-48
2023/05/25 12:02:04;;;;;;;9.07;6.80;;;;;;;;;;5014461;28;20411;-48
2023/05/25 12:04:33;;;;;;;15.43;7.30;;;;;;;;;;5014245;28;20439;-47
2023/05/25 12:07:06;;;;;;;10.10;7.30;;;;;;;;;;5013812;28;20423;-46
2023/05/25 12:09:32;;;;;;;21.97;7.80;;;;;;;;;;5013865;28;20460;-47
2023/05/25 12:11:59;;;;;;;9.17;6.67;;;;;;;;;;5014197;28;20417;-46
2023/05/25 12:14:25;;;;;;;13.60;7.43;;;;;;;;;;5013933;28;20427;-46
2023/05/25 12:16:51;;;;;;;14.30;7.77;;;;;;;;;;5014035;28;20419;-46
2023/05/25 12:19:17;;;;;;;14.90;7.67;;;;;;;;;;5014235;28;20419;-48
2023/05/25 12:21:44;;;;;;;15.83;7.10;;;;;;;;;;5013869;28;20412;-47
2023/05/25 12:24:11;;;;;;;9.17;6.60;;;;;;;;;;5013896;28;20459;-46
2023/05/25 12:26:47;;;;;;;10.50;7.27;;;;;;;;;;5013558;28;20462;-47
2023/05/25 12:29:13;;;;;;;10.13;5.90;;;;;;;;;;5012911;28;20386;-48
2023/05/25 12:31:40;;;;;;;17.00;7.37;;;;;;;;;;5013780;28;20481;-47
2023/05/25 12:34:06;;;;;;;13.10;7.93;;;;;;;;;;5013564;28;20481;-48
2023/05/25 12:36:41;;;;;;;11.73;6.83;;;;;;;;;;5012466;28;20907;-47
2023/05/25 12:39:07;;;;;;;9.60;6.40;;;;;;;;;;5013690;28;20411;-48
2023/05/25 12:41:50;;;;;;;10.10;6.87;;;;;;;;;;5013492;28;20407;-46
2023/05/25 12:44:20;;;;;;;11.60;7.70;;;;;;;;;;5008021;28;20947;-47
2023/05/25 12:46:46;;;;;;;14.83;8.07;;;;;;;;;;5013261;28;20415;-47
2023/05/25 12:49:25;;;;;;;13.83;7.40;;;;;;;;;;5018505;28;20895;-48
2023/05/25 12:51:51;;;;;;;9.97;6.43;;;;;;;;;;5013600;28;20702;-48
2023/05/25 12:54:32;;;;;;;12.17;6.83;;;;;;;;;;5013492;28;20427;-46
2023/05/25 12:56:58;;;;;;;11.30;6.67;;;;;;;;;;5004208;28;20421;-47
2023/05/25 12:59:24;;;;;;;12.20;7.77;;;;;;;;;;5012636;28;20423;-48
2023/05/25 13:01:50;;;;;;;12.10;6.63;;;;;;;;;;5013100;28;20407;-46
2023/05/25 13:04:16;;;;;;;8.70;6.17;;;;;;;;;;5013150;28;20404;-48
2023/05/25 13:06:42;;;;;;;6.27;5.50;;;;;;;;;;5012814;28;20461;-46
2023/05/25 13:09:08;;;;;;;10.57;5.43;;;;;;;;;;5012960;28;20761;-47
2023/05/25 13:11:34;;;;;;;7.30;5.70;;;;;;;;;;5013043;28;20564;-46
2023/05/25 13:14:00;;;;;;;6.20;5.60;;;;;;;;;;5013068;28;20466;-46
2023/05/25 13:16:28;;;;;;;7.13;4.70;;;;;;;;;;5012559;28;20426;-47
2023/05/25 13:18:54;;;;;;;5.43;4.90;;;;;;;;;;5012964;28;20447;-47
2023/05/25 13:21:20;;;;;;;6.80;4.93;;;;;;;;;;5012980;28;20392;-47
2023/05/25 13:23:46;;;;;;;7.30;5.60;;;;;;;;;;5012706;28;20440;-46
2023/05/25 13:26:12;;;;;;;9.90;6.10;;;;;;;;;;5011716;28;20504;-47
2023/05/25 13:28:38;;;;;;;7.53;5.80;;;;;;;;;;5012776;28;20512;-47
2023/05/25 13:31:04;;;;;;;9.00;6.30;;;;;;;;;;5012116;28;21063;-48
2023/05/25 13:33:30;;;;;;;7.97;6.87;;;;;;;;;;5012607;28;20410;-48
2023/05/25 13:36:06;;;;;;;9.73;6.87;;;;;;;;;;5012629;28;20768;-47
2023/05/25 13:38:32;;;;;;;7.40;6.17;;;;;;;;;;5012903;28;20710;-47
2023/05/25 13:40:58;;;;;;;11.00;6.67;;;;;;;;;;5012404;28;20897;-48
2023/05/25 13:43:25;;;;;;;10.47;6.70;;;;;;;;;;5012251;28;20423;-48
2023/05/25 13:45:50;;;;;;;12.47;7.13;;;;;;;;;;5012448;28;21165;-48
2023/05/25 13:48:16;;;;;;;6.17;5.57;;;;;;;;;;5015517;28;20440;-47
2023/05/25 13:50:45;;;;;;;10.07;8.23;;;;;;;;;;5014019;28;20461;-47
2023/05/25 13:53:12;;;;;;;8.20;5.97;;;;;;;;;;5012294;28;20503;-47
2023/05/25 13:55:38;;;;;;;10.40;6.20;;;;;;;;;;5012299;28;20407;-47
2023/05/25 13:58:04;;;;;;;7.77;5.40;;;;;;;;;;5010580;28;20429;-47
2023/05/25 14:00:30;;;;;;;5.77;4.50;;;;;;;;;;5012332;28;20793;-47
2023/05/25 14:02:56;;;;;;;8.60;5.50;;;;;;;;;;5012152;28;20430;-47
2023/05/25 14:05:22;;;;;;;5.83;5.23;;;;;;;;;;5012511;28;20921;-48
2023/05/25 14:07:48;;;;;;;8.33;5.73;;;;;;;;;;5012004;28;20419;-47
2023/05/25 14:10:15;;;;;;;8.07;5.03;;;;;;;;;;5012656;28;20459;-49
2023/05/25 14:12:41;;;;;;;9.47;5.50;;;;;;;;;;5011825;28;20881;-47
2023/05/25 14:15:07;;;;;;;7.37;4.70;;;;;;;;;;5013556;28;20510;-47
2023/05/25 14:17:34;;;;;;;6.97;4.87;;;;;;;;;;5005962;28;20969;-47
2023/05/25 14:20:02;;;;;;;5.70;4.90;;;;;;;;;;5011775;28;20792;-47
2023/05/25 14:22:28;;;;;;;6.83;5.07;;;;;;;;;;5006371;28;20425;-48
2023/05/25 14:24:54;;;;;;;10.23;5.40;;;;;;;;;;5010869;28;20470;-48
2023/05/25 14:27:21;;;;;;;8.67;5.53;;;;;;;;;;5005641;28;20990;-48